createdAt,value
2018-05-01T00:02:16.174Z,16.10
2018-05-01T00:04:43.683Z,16.10
2018-05-01T00:07:11.226Z,16.10
2018-05-01T00:09:39.486Z,16.10
2018-05-01T00:12:07.033Z,16.10
2018-05-01T00:14:34.592Z,16.10
2018-05-01T00:17:02.205Z,16.10
2018-05-01T00:19:29.709Z,16.10
2018-05-01T00:21:57.243Z,16.10
2018-05-01T00:24:24.758Z,16.10
2018-05-01T00:26:52.303Z,16.10
2018-05-01T00:29:19.801Z,16.10
2018-05-01T00:31:47.351Z,16.10
2018-05-01T00:34:14.865Z,16.10
2018-05-01T00:36:42.367Z,16.10
2018-05-01T00:39:09.913Z,16.20
2018-05-01T00:41:37.774Z,16.20
2018-05-01T00:44:05.275Z,16.20
2018-05-01T00:46:32.918Z,16.20
2018-05-01T00:49:00.453Z,16.20
2018-05-01T00:51:28.758Z,16.20
2018-05-01T00:53:56.319Z,16.20
2018-05-01T00:56:24.403Z,16.20
2018-05-01T00:58:52.133Z,16.20
2018-05-01T01:01:22.150Z,16.20
2018-05-01T01:03:49.686Z,16.20
2018-05-01T01:06:17.224Z,16.20
2018-05-01T01:08:44.796Z,16.20
2018-05-01T01:11:12.311Z,16.20
2018-05-01T01:13:39.855Z,16.10
2018-05-01T01:16:07.469Z,16.10
2018-05-01T01:18:35.007Z,16.10
2018-05-01T01:21:02.514Z,16.10
2018-05-01T01:23:30.829Z,16.10
2018-05-01T01:25:58.319Z,16.10
2018-05-01T01:28:25.821Z,16.10
2018-05-01T01:30:53.363Z,16.20
2018-05-01T01:33:20.868Z,16.20
2018-05-01T01:35:47.910Z,16.20
2018-05-01T01:38:14.938Z,16.20
2018-05-01T01:40:42.750Z,16.20
2018-05-01T01:43:09.750Z,16.20
2018-05-01T01:45:36.791Z,16.20
2018-05-01T01:48:03.866Z,16.20
2018-05-01T01:50:30.897Z,16.10
2018-05-01T01:52:57.916Z,16.10
2018-05-01T01:55:24.969Z,16.10
2018-05-01T01:57:51.971Z,16.10
2018-05-01T02:00:19.015Z,16.10
2018-05-01T02:02:46.022Z,16.10
2018-05-01T02:05:13.800Z,16.10
2018-05-01T02:07:40.835Z,16.10
2018-05-01T02:10:07.850Z,15.90
2018-05-01T02:12:34.895Z,15.90
2018-05-01T02:15:01.962Z,15.70
2018-05-01T02:17:29.160Z,15.70
2018-05-01T02:19:56.164Z,15.60
2018-05-01T02:22:23.986Z,15.40
2018-05-01T02:24:50.998Z,15.40
2018-05-01T02:27:18.048Z,15.30
2018-05-01T02:29:45.062Z,15.30
2018-05-01T02:32:12.106Z,15.20
2018-05-01T02:34:39.880Z,15.20
2018-05-01T02:37:07.701Z,15.20
2018-05-01T02:39:34.724Z,15.20
2018-05-01T02:42:01.773Z,15.20
2018-05-01T02:44:28.795Z,15.20
2018-05-01T02:46:55.842Z,15.20
2018-05-01T02:49:22.994Z,15.20
2018-05-01T02:51:50.038Z,15.30
2018-05-01T02:54:17.806Z,15.30
2018-05-01T02:56:44.858Z,15.30
2018-05-01T02:59:11.863Z,15.40
2018-05-01T03:01:39.167Z,15.40
2018-05-01T03:04:06.175Z,15.40
2018-05-01T03:06:33.186Z,15.40
2018-05-01T03:09:00.241Z,15.30
2018-05-01T03:11:27.279Z,15.30
2018-05-01T03:13:54.294Z,15.30
2018-05-01T03:16:22.175Z,15.20
2018-05-01T03:18:49.202Z,15.20
2018-05-01T03:21:17.005Z,15.10
2018-05-01T03:23:44.002Z,15.10
2018-05-01T03:26:11.055Z,15.10
2018-05-01T03:28:38.063Z,15.10
2018-05-01T03:31:05.103Z,15.10
2018-05-01T03:33:32.103Z,15.20
2018-05-01T03:35:59.903Z,15.20
2018-05-01T03:38:26.902Z,15.20
2018-05-01T03:40:53.949Z,15.20
2018-05-01T03:43:20.956Z,15.20
2018-05-01T03:45:47.998Z,15.20
2018-05-01T03:48:15.022Z,15.20
2018-05-01T03:50:42.036Z,15.20
2018-05-01T03:53:09.855Z,15.30
2018-05-01T03:55:36.862Z,15.20
2018-05-01T03:58:03.899Z,15.30
2018-05-01T04:00:30.922Z,15.30
2018-05-01T04:02:57.979Z,15.20
2018-05-01T04:05:25.002Z,15.20
2018-05-01T04:07:52.048Z,15.20
2018-05-01T04:10:19.075Z,15.10
2018-05-01T04:12:46.127Z,15.10
2018-05-01T04:15:13.339Z,15.10
2018-05-01T04:17:41.147Z,15.10
2018-05-01T04:20:08.807Z,15.10
2018-05-01T04:22:35.857Z,15.20
2018-05-01T04:25:02.865Z,15.10
2018-05-01T04:27:29.911Z,15.10
2018-05-01T04:29:56.972Z,15.10
2018-05-01T04:32:24.037Z,15.10
2018-05-01T04:34:51.034Z,15.10
2018-05-01T04:37:19.574Z,15.10
2018-05-01T04:39:46.591Z,15.00
2018-05-01T04:42:13.664Z,15.10
2018-05-01T04:44:40.672Z,15.10
2018-05-01T04:47:07.732Z,15.10
2018-05-01T04:49:35.211Z,15.10
2018-05-01T04:52:02.255Z,15.10
2018-05-01T04:54:29.265Z,15.10
2018-05-01T04:56:56.312Z,15.10
2018-05-01T04:59:23.309Z,15.10
2018-05-01T05:01:50.356Z,15.10
2018-05-01T05:04:17.394Z,15.20
2018-05-01T05:06:44.397Z,15.20
2018-05-01T05:09:11.457Z,15.20
2018-05-01T05:11:40.455Z,15.30
2018-05-01T05:14:07.488Z,15.30
2018-05-01T05:16:34.643Z,15.30
2018-05-01T05:19:02.446Z,15.30
2018-05-01T05:21:29.458Z,15.30
2018-05-01T05:23:56.520Z,15.30
2018-05-01T05:26:23.527Z,15.40
2018-05-01T05:28:50.571Z,15.40
2018-05-01T05:31:17.587Z,15.40
2018-05-01T05:33:44.629Z,15.50
2018-05-01T05:36:12.515Z,15.60
2018-05-01T05:38:39.550Z,15.70
2018-05-01T05:41:06.694Z,15.80
2018-05-01T05:43:33.742Z,16.00
2018-05-01T05:46:00.762Z,16.10
2018-05-01T05:48:27.798Z,16.20
2018-05-01T05:50:54.802Z,16.20
2018-05-01T05:53:21.833Z,16.20
2018-05-01T05:55:48.871Z,16.20
2018-05-01T05:58:15.891Z,16.30
2018-05-01T06:00:43.698Z,16.30
2018-05-01T06:03:12.371Z,16.40
2018-05-01T06:05:39.429Z,16.40
2018-05-01T06:08:06.510Z,16.40
2018-05-01T06:10:33.577Z,16.50
2018-05-01T06:13:01.359Z,16.60
2018-05-01T06:15:28.372Z,16.60
2018-05-01T06:17:56.203Z,16.70
2018-05-01T06:20:23.237Z,16.70
2018-05-01T06:22:50.652Z,16.70
2018-05-01T06:25:17.655Z,16.70
2018-05-01T06:27:44.707Z,16.70
2018-05-01T06:30:11.703Z,16.70
2018-05-01T06:32:38.750Z,16.70
2018-05-01T06:35:06.037Z,16.70
2018-05-01T06:37:33.184Z,16.70
2018-05-01T06:40:00.126Z,16.70
2018-05-01T06:42:27.179Z,16.70
2018-05-01T06:44:54.190Z,16.80
2018-05-01T06:47:21.245Z,16.80
2018-05-01T06:49:48.283Z,16.80
2018-05-01T06:52:15.326Z,16.90
2018-05-01T06:54:43.107Z,17.00
2018-05-01T06:57:10.915Z,17.00
2018-05-01T06:59:37.918Z,17.00
2018-05-01T07:02:05.009Z,17.00
2018-05-01T07:04:32.169Z,17.00
2018-05-01T07:06:59.090Z,17.00
2018-05-01T07:09:26.179Z,17.00
2018-05-01T07:11:53.253Z,17.00
2018-05-01T07:14:21.072Z,17.00
2018-05-01T07:16:48.119Z,17.00
2018-05-01T07:19:15.205Z,17.00
2018-05-01T07:21:43.008Z,17.00
2018-05-01T07:24:10.100Z,17.00
2018-05-01T07:26:37.118Z,17.00
2018-05-01T07:29:04.195Z,17.10
2018-05-01T07:31:31.218Z,17.10
2018-05-01T07:33:58.272Z,17.10
2018-05-01T07:36:25.290Z,17.10
2018-05-01T07:38:52.398Z,17.10
2018-05-01T07:41:19.415Z,17.20
2018-05-01T07:43:46.470Z,17.30
2018-05-01T07:46:13.486Z,17.30
2018-05-01T07:48:40.529Z,17.40
2018-05-01T07:51:07.527Z,17.40
2018-05-01T07:53:34.630Z,17.50
2018-05-01T07:56:01.675Z,17.60
2018-05-01T07:58:28.679Z,17.70
2018-05-01T08:00:55.738Z,17.80
2018-05-01T08:03:22.751Z,17.90
2018-05-01T08:05:49.912Z,18.00
2018-05-01T08:08:16.919Z,18.00
2018-05-01T08:10:44.138Z,18.10
2018-05-01T08:13:11.146Z,18.20
2018-05-01T08:15:38.284Z,18.20
2018-05-01T08:18:05.335Z,18.20
2018-05-01T08:20:32.380Z,18.20
2018-05-01T08:22:59.390Z,18.20
2018-05-01T08:25:26.430Z,18.20
2018-05-01T08:27:53.441Z,18.20
2018-05-01T08:30:20.491Z,18.20
2018-05-01T08:32:47.594Z,18.20
2018-05-01T08:35:14.782Z,18.20
2018-05-01T08:37:41.788Z,18.30
2018-05-01T08:40:08.850Z,18.30
2018-05-01T08:42:36.061Z,18.30
2018-05-01T08:45:03.882Z,18.40
2018-05-01T08:47:30.919Z,18.40
2018-05-01T08:49:58.021Z,18.40
2018-05-01T08:52:25.834Z,18.60
2018-05-01T08:54:52.844Z,18.50
2018-05-01T08:57:19.979Z,18.60
2018-05-01T08:59:46.920Z,18.70
2018-05-01T09:02:13.974Z,18.70
2018-05-01T09:04:40.990Z,18.80
2018-05-01T09:07:08.090Z,18.80
2018-05-01T09:09:35.125Z,18.80
2018-05-01T09:12:02.170Z,18.80
2018-05-01T09:14:29.184Z,18.90
2018-05-01T09:16:56.289Z,18.90
2018-05-01T09:19:23.542Z,18.90
2018-05-01T09:21:50.576Z,18.90
2018-05-01T09:24:17.586Z,19.00
2018-05-01T09:26:44.805Z,19.00
2018-05-01T09:29:11.843Z,19.10
2018-05-01T09:31:38.859Z,19.20
2018-05-01T09:34:06.688Z,19.30
2018-05-01T09:36:36.809Z,19.30
2018-05-01T09:39:03.922Z,19.40
2018-05-01T09:41:31.675Z,19.50
2018-05-01T09:43:58.725Z,19.60
2018-05-01T09:46:25.743Z,19.60
2018-05-01T09:48:52.807Z,19.70
2018-05-01T09:51:19.823Z,19.80
2018-05-01T09:53:47.373Z,19.80
2018-05-01T09:56:14.868Z,19.90
2018-05-01T09:58:43.172Z,20.00
2018-05-01T10:01:10.835Z,20.00
2018-05-01T10:03:38.370Z,20.10
2018-05-01T10:06:05.860Z,20.10
2018-05-01T10:08:33.395Z,20.10
2018-05-01T10:11:00.896Z,20.10
2018-05-01T10:13:28.466Z,20.10
2018-05-01T10:15:55.981Z,20.10
2018-05-01T10:18:23.503Z,20.10
2018-05-01T10:20:51.044Z,20.10
2018-05-01T10:23:18.536Z,20.20
2018-05-01T10:25:46.070Z,20.20
2018-05-01T10:28:14.382Z,20.30
2018-05-01T10:30:41.923Z,20.40
2018-05-01T10:33:10.201Z,20.50
2018-05-01T10:35:38.507Z,20.50
2018-05-01T10:38:06.003Z,20.50
2018-05-01T10:40:33.557Z,20.50
2018-05-01T10:43:01.127Z,20.50
2018-05-01T10:45:28.722Z,20.60
2018-05-01T10:47:56.239Z,20.40
2018-05-01T10:50:23.795Z,20.40
2018-05-01T10:52:51.286Z,20.30
2018-05-01T10:55:19.579Z,20.10
2018-05-01T10:57:47.075Z,20.10
2018-05-01T11:00:14.590Z,20.10
2018-05-01T11:02:42.088Z,20.00
2018-05-01T11:05:09.631Z,20.00
2018-05-01T11:07:37.128Z,20.00
2018-05-01T11:10:05.438Z,19.80
2018-05-01T11:12:32.974Z,19.80
2018-05-01T11:15:00.536Z,19.70
2018-05-01T11:17:28.232Z,19.60
2018-05-01T11:19:55.702Z,19.60
2018-05-01T11:22:23.258Z,19.50
2018-05-01T11:24:50.799Z,19.50
2018-05-01T11:27:18.295Z,19.60
2018-05-01T11:29:46.007Z,19.60
2018-05-01T11:32:14.292Z,19.50
2018-05-01T11:34:42.547Z,19.40
2018-05-01T11:37:10.163Z,19.40
2018-05-01T11:39:37.710Z,19.30
2018-05-01T11:42:05.222Z,19.20
2018-05-01T11:44:32.850Z,19.20
2018-05-01T11:47:00.387Z,19.20
2018-05-01T11:49:28.077Z,19.30
2018-05-01T11:51:55.579Z,19.20
2018-05-01T11:54:23.859Z,19.20
2018-05-01T11:56:52.157Z,19.20
2018-05-01T11:59:19.794Z,19.20
2018-05-01T12:01:48.084Z,19.20
2018-05-01T12:04:16.340Z,19.20
2018-05-01T12:06:43.871Z,19.20
2018-05-01T12:09:11.384Z,19.30
2018-05-01T12:11:38.941Z,19.50
2018-05-01T12:14:06.440Z,19.60
2018-05-01T12:16:34.176Z,19.70
2018-05-01T12:19:01.702Z,19.80
2018-05-01T12:21:30.059Z,19.70
2018-05-01T12:23:57.717Z,19.70
2018-05-01T12:26:26.757Z,19.60
2018-05-01T12:28:54.256Z,19.60
2018-05-01T12:31:21.799Z,19.60
2018-05-01T12:33:49.307Z,19.60
2018-05-01T12:36:17.605Z,19.40
2018-05-01T12:38:45.142Z,19.50
2018-05-01T12:41:12.691Z,19.40
2018-05-01T12:43:40.191Z,19.40
2018-05-01T12:46:07.724Z,19.40
2018-05-01T12:48:35.401Z,19.30
2018-05-01T12:51:02.837Z,19.20
2018-05-01T12:53:31.159Z,19.50
2018-05-01T12:55:58.696Z,19.50
2018-05-01T12:58:26.222Z,19.80
2018-05-01T13:00:53.771Z,20.20
2018-05-01T13:03:21.286Z,20.80
2018-05-01T13:05:48.835Z,21.30
2018-05-01T13:08:16.358Z,22.30
2018-05-01T13:10:43.902Z,23.20
2018-05-01T13:13:11.392Z,23.70
2018-05-01T13:15:39.071Z,24.00
2018-05-01T13:18:06.603Z,24.40
2018-05-01T13:20:34.257Z,24.90
2018-05-01T13:23:01.750Z,25.10
2018-05-01T13:25:29.580Z,25.50
2018-05-01T13:27:57.195Z,25.80
2018-05-01T13:30:24.779Z,25.90
2018-05-01T13:32:52.358Z,26.10
2018-05-01T13:35:20.697Z,26.00
2018-05-01T13:37:48.328Z,25.90
2018-05-01T13:40:15.886Z,25.90
2018-05-01T13:42:43.411Z,25.80
2018-05-01T13:45:10.987Z,26.00
2018-05-01T13:47:38.540Z,26.30
2018-05-01T13:50:06.078Z,26.60
2018-05-01T13:52:33.646Z,27.20
2018-05-01T13:55:01.151Z,27.80
2018-05-01T13:57:28.758Z,28.30
2018-05-01T13:59:56.775Z,27.90
2018-05-01T14:02:24.275Z,28.50
2018-05-01T14:04:51.817Z,29.00
2018-05-01T14:07:19.335Z,29.80
2018-05-01T14:09:46.901Z,28.80
2018-05-01T14:12:14.483Z,28.50
2018-05-01T14:14:44.490Z,29.20
2018-05-01T14:17:12.121Z,28.50
2018-05-01T14:19:41.613Z,27.60
2018-05-01T14:22:09.990Z,26.80
2018-05-01T14:24:38.366Z,25.90
2018-05-01T14:27:05.876Z,25.10
2018-05-01T14:29:33.414Z,24.40
2018-05-01T14:32:00.924Z,23.60
2018-05-01T14:34:28.491Z,23.10
2018-05-01T14:36:56.035Z,22.50
2018-05-01T14:39:23.618Z,22.00
2018-05-01T14:41:51.140Z,21.70
2018-05-01T14:44:18.713Z,21.40
2018-05-01T14:46:46.251Z,21.10
2018-05-01T14:49:13.807Z,21.00
2018-05-01T14:51:41.311Z,20.80
2018-05-01T14:54:08.849Z,20.80
2018-05-01T14:56:36.346Z,20.70
2018-05-01T14:59:03.893Z,20.70
2018-05-01T15:01:31.456Z,20.80
2018-05-01T15:03:58.970Z,20.60
2018-05-01T15:06:26.601Z,20.60
2018-05-01T15:08:54.334Z,21.20
2018-05-01T15:11:22.550Z,23.60
2018-05-01T15:13:53.576Z,24.40
2018-05-01T15:16:21.183Z,24.40
2018-05-01T15:18:49.374Z,25.10
2018-05-01T15:21:16.882Z,25.60
2018-05-01T15:23:46.433Z,24.80
2018-05-01T15:26:13.937Z,24.70
2018-05-01T15:28:44.072Z,25.90
2018-05-01T15:31:11.583Z,26.60
2018-05-01T15:33:39.125Z,26.00
2018-05-01T15:36:06.681Z,25.90
2018-05-01T15:38:34.347Z,27.70
2018-05-01T15:41:01.907Z,28.80
2018-05-01T15:43:29.458Z,29.10
2018-05-01T15:45:57.025Z,30.00
2018-05-01T15:48:24.540Z,30.80
2018-05-01T15:50:52.096Z,31.20
2018-05-01T15:53:20.379Z,32.80
2018-05-01T15:55:49.531Z,33.20
2018-05-01T15:58:17.046Z,33.20
2018-05-01T16:00:44.616Z,34.00
2018-05-01T16:03:12.139Z,34.40
2018-05-01T16:05:39.698Z,34.80
2018-05-01T16:08:07.991Z,32.70
2018-05-01T16:10:36.353Z,30.60
2018-05-01T16:13:03.872Z,30.40
2018-05-01T16:15:31.437Z,28.20
2018-05-01T16:17:59.116Z,26.60
2018-05-01T16:20:26.674Z,25.30
2018-05-01T16:22:54.972Z,24.10
2018-05-01T16:25:23.492Z,22.40
2018-05-01T16:27:50.999Z,22.30
2018-05-01T16:30:18.543Z,21.80
2018-05-01T16:32:46.140Z,21.20
2018-05-01T16:35:13.678Z,20.70
2018-05-01T16:37:41.180Z,20.40
2018-05-01T16:40:08.728Z,20.00
2018-05-01T16:42:36.248Z,19.80
2018-05-01T16:45:03.803Z,19.50
2018-05-01T16:47:31.359Z,19.30
2018-05-01T16:49:58.906Z,19.10
2018-05-01T16:52:26.484Z,18.90
2018-05-01T16:54:54.018Z,18.80
2018-05-01T16:57:21.525Z,18.70
2018-05-01T16:59:49.087Z,18.60
2018-05-01T17:02:17.361Z,18.50
2018-05-01T17:04:45.805Z,18.40
2018-05-01T17:07:13.307Z,18.40
2018-05-01T17:09:41.568Z,18.30
2018-05-01T17:12:09.201Z,18.30
2018-05-01T17:14:36.775Z,18.30
2018-05-01T17:17:04.336Z,18.30
2018-05-01T17:19:31.847Z,18.20
2018-05-01T17:21:59.405Z,18.10
2018-05-01T17:24:26.907Z,18.10
2018-05-01T17:26:54.487Z,18.00
2018-05-01T17:29:22.059Z,17.90
2018-05-01T17:31:50.377Z,17.70
2018-05-01T17:34:17.876Z,17.70
2018-05-01T17:36:45.431Z,17.70
2018-05-01T17:39:12.926Z,17.60
2018-05-01T17:41:40.564Z,17.50
2018-05-01T17:44:08.825Z,17.40
2018-05-01T17:46:36.399Z,17.30
2018-05-01T17:49:03.917Z,17.30
2018-05-01T17:51:31.430Z,17.20
2018-05-01T17:53:59.933Z,17.10
2018-05-01T17:56:27.492Z,17.10
2018-05-01T17:58:55.043Z,17.00
2018-05-01T18:01:22.566Z,16.90
2018-05-01T18:03:50.116Z,16.90
2018-05-01T18:06:17.640Z,16.80
2018-05-01T18:08:45.215Z,16.70
2018-05-01T18:11:13.511Z,16.60
2018-05-01T18:13:41.116Z,16.50
2018-05-01T18:16:09.774Z,16.40
2018-05-01T18:18:37.371Z,16.30
2018-05-01T18:21:04.894Z,16.20
2018-05-01T18:23:32.511Z,16.00
2018-05-01T18:26:00.094Z,15.90
2018-05-01T18:28:27.663Z,15.90
2018-05-01T18:30:55.171Z,15.80
2018-05-01T18:33:22.739Z,15.80
2018-05-01T18:35:50.254Z,15.70
2018-05-01T18:38:17.803Z,15.60
2018-05-01T18:40:45.300Z,15.60
2018-05-01T18:43:12.831Z,15.50
2018-05-01T18:45:40.335Z,15.40
2018-05-01T18:48:07.869Z,15.30
2018-05-01T18:50:40.087Z,15.30
2018-05-01T18:53:02.926Z,15.20
2018-05-01T18:55:30.475Z,15.20
2018-05-01T18:57:58.079Z,15.20
2018-05-01T19:00:25.572Z,15.20
2018-05-01T19:02:53.174Z,15.10
2018-05-01T19:05:22.743Z,15.10
2018-05-01T19:07:50.247Z,15.10
2018-05-01T19:10:17.814Z,15.00
2018-05-01T19:12:45.341Z,14.90
2018-05-01T19:15:13.109Z,14.80
2018-05-01T19:17:40.680Z,14.80
2018-05-01T19:20:08.241Z,14.70
2018-05-01T19:22:35.789Z,14.60
2018-05-01T19:25:03.337Z,14.60
2018-05-01T19:27:30.850Z,14.40
2018-05-01T19:29:59.149Z,14.30
2018-05-01T19:32:26.735Z,14.30
2018-05-01T19:34:54.521Z,14.20
2018-05-01T19:37:23.573Z,14.10
2018-05-01T19:39:51.136Z,14.10
2018-05-01T19:42:18.757Z,14.10
2018-05-01T19:44:46.298Z,14.00
2018-05-01T19:47:14.674Z,14.00
2018-05-01T19:49:42.191Z,14.10
2018-05-01T19:52:09.811Z,14.10
2018-05-01T19:54:37.338Z,14.10
2018-05-01T19:57:04.875Z,14.10
2018-05-01T19:59:36.105Z,14.10
2018-05-01T20:02:04.892Z,14.10
2018-05-01T20:04:33.166Z,13.90
2018-05-01T20:07:01.505Z,13.90
2018-05-01T20:09:29.090Z,13.90
2018-05-01T20:11:57.408Z,13.90
2018-05-01T20:14:25.172Z,13.80
2018-05-01T20:16:52.724Z,13.80
2018-05-01T20:19:20.233Z,13.80
2018-05-01T20:21:47.747Z,13.80
2018-05-01T20:24:15.300Z,13.80
2018-05-01T20:26:43.254Z,13.70
2018-05-01T20:29:11.746Z,13.70
2018-05-01T20:31:39.258Z,13.70
2018-05-01T20:34:06.786Z,13.70
2018-05-01T20:36:35.222Z,13.70
2018-05-01T20:39:04.472Z,13.70
2018-05-01T20:41:32.112Z,13.70
2018-05-01T20:44:00.653Z,13.60
2018-05-01T20:46:29.713Z,13.70
2018-05-01T20:48:57.758Z,13.60
2018-05-01T20:51:26.378Z,13.50
2018-05-01T20:53:55.659Z,13.60
2018-05-01T20:56:23.377Z,13.50
2018-05-01T20:58:51.854Z,13.40
2018-05-01T21:01:19.366Z,13.40
2018-05-01T21:03:47.041Z,13.30
2018-05-01T21:06:18.203Z,13.30
2018-05-01T21:08:50.311Z,13.30
2018-05-01T21:11:21.659Z,13.30
2018-05-01T21:13:49.191Z,13.30
2018-05-01T21:16:17.544Z,13.30
2018-05-01T21:18:45.040Z,13.30
2018-05-01T21:21:12.574Z,13.30
2018-05-01T21:23:40.087Z,13.20
2018-05-01T21:26:07.627Z,13.10
2018-05-01T21:28:35.130Z,13.00
2018-05-01T21:31:02.720Z,13.00
2018-05-01T21:33:30.223Z,13.00
2018-05-01T21:35:57.761Z,13.00
2018-05-01T21:38:25.270Z,12.90
2018-05-01T21:40:52.837Z,13.00
2018-05-01T21:43:20.372Z,12.90
2018-05-01T21:45:48.660Z,12.80
2018-05-01T21:48:16.177Z,12.80
2018-05-01T21:50:43.741Z,12.80
2018-05-01T21:53:11.266Z,12.80
2018-05-01T21:55:38.840Z,12.80
2018-05-01T21:58:07.104Z,12.60
2018-05-01T22:00:35.370Z,12.50
2018-05-01T22:03:02.912Z,12.50
2018-05-01T22:05:30.507Z,12.40
2018-05-01T22:07:58.810Z,12.30
2018-05-01T22:10:26.303Z,12.30
2018-05-01T22:12:54.646Z,12.30
2018-05-01T22:15:22.171Z,12.30
2018-05-01T22:17:50.502Z,12.20
2018-05-01T22:20:18.007Z,12.20
2018-05-01T22:22:45.547Z,12.20
2018-05-01T22:25:13.048Z,12.10
2018-05-01T22:27:40.579Z,12.10
2018-05-01T22:30:08.077Z,12.10
2018-05-01T22:32:35.611Z,12.00
2018-05-01T22:35:03.878Z,12.00
2018-05-01T22:37:32.208Z,11.80
2018-05-01T22:39:59.709Z,11.70
2018-05-01T22:42:27.237Z,11.60
2018-05-01T22:44:54.743Z,11.60
2018-05-01T22:47:23.047Z,11.50
2018-05-01T22:49:50.536Z,11.50
2018-05-01T22:52:18.035Z,11.40
2018-05-01T22:54:45.574Z,11.50
2018-05-01T22:57:13.119Z,11.50
2018-05-01T22:59:40.674Z,11.40
2018-05-01T23:02:08.170Z,11.40
2018-05-01T23:04:36.465Z,11.40
2018-05-01T23:07:03.964Z,11.30
2018-05-01T23:09:32.262Z,11.30
2018-05-01T23:12:01.400Z,11.20
2018-05-01T23:14:28.957Z,11.20
2018-05-01T23:16:56.460Z,11.20
2018-05-01T23:19:24.003Z,11.20
2018-05-01T23:21:51.515Z,11.20
2018-05-01T23:24:19.820Z,11.30
2018-05-01T23:26:47.319Z,11.20
2018-05-01T23:29:14.865Z,11.30
2018-05-01T23:31:42.363Z,11.20
2018-05-01T23:34:10.677Z,11.10
2018-05-01T23:36:38.168Z,11.10
2018-05-01T23:39:05.679Z,11.10
2018-05-01T23:41:33.211Z,11.00
2018-05-01T23:44:01.478Z,11.00
2018-05-01T23:46:29.777Z,10.90
2018-05-01T23:48:57.276Z,10.90
2018-05-01T23:51:24.810Z,10.90
2018-05-01T23:53:52.300Z,10.90
2018-05-01T23:56:19.826Z,10.90
2018-05-01T23:58:47.313Z,10.90
